Time;durP1;ratioP1;P1;durP2;ratioP2;P2;SDS_P1;SDS_P2;PMS_P1;PMS_P2;Temp;Humidity;BMP_temperature;BMP_pressure;BME280_temperature;BME280_humidity;BME280_pressure;Samples;Min_cycle;Max_cycle;Signal;HPM_P1;HPM_P2
2023/03/28 00:01:13;;;;;;;5.60;3.28;;;3.40;84.30;;;;;;5073225;28;20250;-76
2023/03/28 00:03:41;;;;;;;5.32;3.60;;;3.30;84.30;;;;;;5072530;28;20668;-68
2023/03/28 00:06:10;;;;;;;6.75;3.30;;;3.30;84.40;;;;;;5072893;28;20193;-69
2023/03/28 00:08:40;;;;;;;4.07;3.30;;;3.20;84.90;;;;;;5072024;28;20264;-70
2023/03/28 00:11:17;;;;;;;5.22;3.05;;;3.10;83.90;;;;;;5072853;28;20614;-69
2023/03/28 00:13:45;;;;;;;4.90;3.22;;;3.10;83.90;;;;;;5072191;28;20216;-69
2023/03/28 00:16:17;;;;;;;4.57;3.30;;;3.10;83.70;;;;;;5072488;28;20192;-69
2023/03/28 00:18:49;;;;;;;4.13;3.00;;;3.10;83.50;;;;;;5072275;28;20185;-69
2023/03/28 00:21:23;;;;;;;4.38;3.72;;;3.00;83.30;;;;;;5072842;28;20194;-69
2023/03/28 00:23:54;;;;;;;5.65;3.33;;;3.00;83.30;;;;;;5072283;28;20182;-69
2023/03/28 00:26:25;;;;;;;3.72;2.80;;;3.00;83.20;;;;;;5072533;28;20198;-69
2023/03/28 00:28:53;;;;;;;5.38;3.45;;;3.00;83.20;;;;;;5072196;28;20189;-69
2023/03/28 00:31:25;;;;;;;4.97;3.78;;;3.00;83.20;;;;;;5072608;28;20243;-68
2023/03/28 00:33:53;;;;;;;3.65;2.92;;;3.00;83.00;;;;;;5072182;28;20295;-70
2023/03/28 00:36:22;;;;;;;7.07;3.05;;;3.00;83.10;;;;;;5072339;28;20228;-69
2023/03/28 00:38:51;;;;;;;7.20;3.40;;;3.10;83.30;;;;;;5072202;28;20548;-69
2023/03/28 00:41:21;;;;;;;5.22;3.00;;;3.10;83.10;;;;;;5071845;28;20244;-69
2023/03/28 00:43:52;;;;;;;4.10;3.10;;;3.10;82.90;;;;;;5072025;28;20250;-68
2023/03/28 00:46:26;;;;;;;5.97;3.28;;;3.10;82.50;;;;;;5071968;28;20189;-69
2023/03/28 00:48:59;;;;;;;5.43;3.55;;;3.10;82.20;;;;;;5072423;28;20185;-69
2023/03/28 00:51:31;;;;;;;5.22;3.28;;;3.10;82.40;;;;;;5071999;28;20601;-69
2023/03/28 00:54:00;;;;;;;6.15;3.45;;;3.10;82.40;;;;;;5071592;28;20255;-69
2023/03/28 00:56:30;;;;;;;3.78;2.83;;;3.10;82.10;;;;;;5071519;28;20182;-69
2023/03/28 00:59:02;;;;;;;4.78;4.20;;;3.20;82.20;;;;;;5071936;28;20190;-69
2023/03/28 01:01:30;;;;;;;4.57;3.33;;;3.20;81.80;;;;;;5071855;28;20189;-69
2023/03/28 01:04:08;;;;;;;3.95;3.20;;;3.20;81.60;;;;;;5071914;28;20220;-68
2023/03/28 01:06:40;;;;;;;4.50;3.17;;;3.20;81.00;;;;;;5072086;28;20208;-69
2023/03/28 01:09:09;;;;;;;4.55;3.00;;;3.20;81.20;;;;;;5071640;28;20257;-69
2023/03/28 01:11:39;;;;;;;3.58;2.42;;;3.20;80.50;;;;;;5071531;28;20186;-69
2023/03/28 01:14:12;;;;;;;6.65;3.20;;;3.30;80.40;;;;;;5071749;28;20213;-69
2023/03/28 01:16:41;;;;;;;6.22;2.95;;;3.30;80.40;;;;;;5071479;28;20280;-69
2023/03/28 01:19:25;;;;;;;4.05;3.03;;;3.20;80.70;;;;;;5072053;28;20280;-69
2023/03/28 01:22:35;;;;;;;4.50;2.80;;;3.30;80.30;;;;;;5071571;28;20264;-69
2023/03/28 01:25:35;;;;;;;6.20;3.40;;;3.30;80.50;;;;;;5014386;28;20186;-69
2023/03/28 01:28:10;;;;;;;4.18;3.05;;;3.30;80.20;;;;;;5071898;28;20198;-69
2023/03/28 01:31:20;;;;;;;4.90;3.38;;;3.30;80.20;;;;;;5071606;28;20551;-69
2023/03/28 01:34:08;;;;;;;5.53;3.30;;;3.20;80.10;;;;;;4990016;28;20583;-69
2023/03/28 01:37:00;;;;;;;6.38;4.00;;;3.30;80.10;;;;;;4990102;28;20722;-70
2023/03/28 01:39:40;;;;;;;4.60;3.50;;;3.20;79.70;;;;;;5056377;28;20193;-69
2023/03/28 01:42:14;;;;;;;6.65;3.65;;;3.30;79.70;;;;;;5071202;28;20195;-69
2023/03/28 01:44:51;;;;;;;4.18;2.95;;;3.20;79.70;;;;;;5071817;28;20198;-69
2023/03/28 01:47:26;;;;;;;5.25;3.60;;;3.30;79.30;;;;;;5071033;28;20186;-69
2023/03/28 01:50:02;;;;;;;4.30;3.20;;;3.30;78.60;;;;;;5071530;28;20219;-70
2023/03/28 01:52:38;;;;;;;4.90;3.53;;;3.30;77.30;;;;;;5056537;28;20273;-69
2023/03/28 01:55:10;;;;;;;5.80;3.67;;;3.30;77.50;;;;;;5071055;28;20679;-73
2023/03/28 01:57:45;;;;;;;6.45;3.60;;;3.30;77.80;;;;;;5071634;28;20276;-69
2023/03/28 02:00:19;;;;;;;4.30;2.80;;;3.30;77.70;;;;;;5071399;28;20196;-69
2023/03/28 02:02:59;;;;;;;5.68;3.78;;;3.30;77.90;;;;;;5071318;28;20189;-69
2023/03/28 02:05:29;;;;;;;3.85;2.83;;;3.30;77.60;;;;;;5072796;28;20224;-69
2023/03/28 02:08:00;;;;;;;4.95;3.70;;;3.30;77.30;;;;;;5074916;28;20696;-70
2023/03/28 02:10:32;;;;;;;5.45;3.35;;;3.30;77.00;;;;;;5074461;28;20667;-69
2023/03/28 02:13:06;;;;;;;6.15;4.07;;;3.40;77.00;;;;;;5074830;28;20186;-69
2023/03/28 02:15:34;;;;;;;4.25;2.80;;;3.30;76.00;;;;;;5074583;28;20790;-69
2023/03/28 02:18:05;;;;;;;6.88;3.60;;;3.40;75.60;;;;;;5074934;28;20194;-69
2023/03/28 02:20:37;;;;;;;4.95;2.97;;;3.40;75.40;;;;;;5074574;28;20198;-69
2023/03/28 02:23:11;;;;;;;5.40;3.80;;;3.40;75.80;;;;;;5074933;28;20255;-69
2023/03/28 02:25:40;;;;;;;5.03;3.70;;;3.40;75.50;;;;;;5074629;28;20190;-69
2023/03/28 02:28:23;;;;;;;5.90;3.33;;;3.40;75.40;;;;;;5074515;28;20194;-69
2023/03/28 02:30:52;;;;;;;3.72;3.05;;;3.40;75.50;;;;;;5073850;28;20184;-69
2023/03/28 02:33:38;;;;;;;5.60;3.50;;;3.40;75.40;;;;;;5074948;28;20547;-69
2023/03/28 02:36:26;;;;;;;5.78;3.17;;;3.40;74.40;;;;;;5074207;28;20217;-69
2023/03/28 02:39:13;;;;;;;6.28;3.63;;;3.40;74.80;;;;;;5074625;28;20192;-69
2023/03/28 02:41:55;;;;;;;4.78;3.20;;;3.40;74.80;;;;;;5074568;28;20197;-69
2023/03/28 02:44:44;;;;;;;5.03;3.30;;;3.40;75.00;;;;;;5074096;28;20228;-69
2023/03/28 02:47:20;;;;;;;4.90;2.92;;;3.30;73.60;;;;;;5074682;28;20197;-69
2023/03/28 02:49:56;;;;;;;5.57;3.63;;;3.40;73.50;;;;;;5074346;28;20644;-70
2023/03/28 02:52:33;;;;;;;6.30;3.10;;;3.30;73.60;;;;;;5074325;28;20190;-70
2023/03/28 02:55:15;;;;;;;5.65;3.50;;;3.30;74.30;;;;;;5073675;28;20217;-69
2023/03/28 02:57:48;;;;;;;6.65;3.75;;;3.30;73.80;;;;;;5074331;28;20276;-69
2023/03/28 03:00:19;;;;;;;4.88;4.32;;;3.30;73.30;;;;;;5073471;28;20193;-70
2023/03/28 03:02:49;;;;;;;6.13;3.80;;;3.30;73.40;;;;;;5074128;28;20194;-71
2023/03/28 03:05:19;;;;;;;4.43;3.40;;;3.20;73.00;;;;;;5073707;28;20181;-70
2023/03/28 03:07:48;;;;;;;5.40;3.28;;;3.20;72.80;;;;;;5074079;28;20249;-72
2023/03/28 03:10:18;;;;;;;4.50;3.10;;;3.20;72.60;;;;;;5073481;28;20240;-69
2023/03/28 03:12:46;;;;;;;4.40;3.00;;;3.20;72.50;;;;;;5073768;28;20225;-70
2023/03/28 03:15:18;;;;;;;4.93;3.22;;;3.20;72.80;;;;;;5073292;28;20278;-69
2023/03/28 03:17:46;;;;;;;4.20;3.00;;;3.20;73.00;;;;;;5072746;28;20251;-69
2023/03/28 03:20:13;;;;;;;5.85;3.22;;;3.20;72.70;;;;;;5073562;28;20189;-69
2023/03/28 03:22:41;;;;;;;5.65;3.58;;;3.10;72.40;;;;;;5074110;28;20203;-69
2023/03/28 03:25:11;;;;;;;5.13;3.25;;;3.10;72.30;;;;;;5073179;28;20590;-69
2023/03/28 03:27:41;;;;;;;6.45;3.63;;;3.10;72.30;;;;;;5074150;28;20627;-69
2023/03/28 03:30:10;;;;;;;5.82;2.92;;;3.10;71.80;;;;;;5073385;28;20521;-69
2023/03/28 03:32:38;;;;;;;4.55;3.10;;;3.00;71.20;;;;;;5072899;28;20218;-70
2023/03/28 03:35:06;;;;;;;4.30;3.08;;;3.00;71.40;;;;;;5073263;28;20248;-69
2023/03/28 03:37:34;;;;;;;4.45;2.90;;;3.00;72.20;;;;;;5073329;28;20637;-77
2023/03/28 03:40:11;;;;;;;5.13;3.20;;;3.00;72.70;;;;;;5072580;28;20216;-69
2023/03/28 03:42:41;;;;;;;3.95;2.45;;;3.00;72.90;;;;;;5073227;28;20236;-73
2023/03/28 03:45:10;;;;;;;4.65;3.47;;;3.00;73.00;;;;;;5067988;28;20190;-69
2023/03/28 03:47:38;;;;;;;5.20;3.58;;;3.00;73.00;;;;;;5052984;28;20248;-69
2023/03/28 03:50:06;;;;;;;4.60;3.00;;;3.10;73.10;;;;;;5058632;28;20213;-69
2023/03/28 03:52:34;;;;;;;5.70;3.17;;;3.10;72.80;;;;;;5073144;28;20197;-69
2023/03/28 03:55:01;;;;;;;4.25;3.28;;;3.10;72.60;;;;;;5072482;28;20209;-69
2023/03/28 03:57:33;;;;;;;5.28;3.42;;;3.10;71.50;;;;;;5073025;28;20763;-69
2023/03/28 04:00:08;;;;;;;5.22;3.17;;;3.20;71.20;;;;;;5072858;28;20581;-69
2023/03/28 04:02:37;;;;;;;4.85;2.78;;;3.20;71.70;;;;;;5073200;28;20247;-69
2023/03/28 04:05:08;;;;;;;5.22;3.50;;;3.20;71.60;;;;;;5072399;28;20590;-69
2023/03/28 04:07:38;;;;;;;4.82;3.30;;;3.20;71.10;;;;;;5072744;28;20683;-69
2023/03/28 04:10:06;;;;;;;4.88;3.22;;;3.20;70.90;;;;;;5072376;28;20185;-69
2023/03/28 04:12:33;;;;;;;5.22;3.45;;;3.20;70.60;;;;;;5072663;28;20678;-69
2023/03/28 04:15:06;;;;;;;4.93;3.75;;;3.20;70.40;;;;;;5071897;28;20267;-75
2023/03/28 04:17:33;;;;;;;6.22;3.20;;;3.30;70.20;;;;;;5072849;28;20709;-69
2023/03/28 04:20:04;;;;;;;3.72;2.55;;;3.30;70.10;;;;;;5072529;28;20212;-70
2023/03/28 04:22:31;;;;;;;7.05;2.95;;;3.20;70.50;;;;;;5072944;28;20196;-69
2023/03/28 04:25:00;;;;;;;5.15;3.85;;;3.30;71.20;;;;;;5071981;28;20716;-69
2023/03/28 04:27:31;;;;;;;5.88;3.10;;;3.30;71.50;;;;;;5072867;28;20538;-69
2023/03/28 04:29:59;;;;;;;5.90;3.65;;;3.30;71.50;;;;;;5071004;28;20633;-69
2023/03/28 04:32:28;;;;;;;4.38;3.30;;;3.30;71.60;;;;;;5072683;28;20247;-69
2023/03/28 04:34:59;;;;;;;16.42;4.25;;;3.30;71.20;;;;;;5072647;28;20239;-70
2023/03/28 04:37:27;;;;;;;4.80;3.33;;;3.30;70.70;;;;;;5072200;28;20182;-69
2023/03/28 04:39:54;;;;;;;5.05;3.97;;;3.40;70.70;;;;;;5072093;28;20196;-69
2023/03/28 04:42:27;;;;;;;5.97;3.90;;;3.40;70.50;;;;;;5072669;28;20242;-69
2023/03/28 04:44:54;;;;;;;6.00;3.85;;;3.40;70.70;;;;;;5072044;28;20259;-71
2023/03/28 04:47:27;;;;;;;5.97;3.50;;;3.40;70.30;;;;;;5072399;28;20205;-69
2023/03/28 04:49:58;;;;;;;5.45;3.95;;;3.40;69.90;;;;;;5072225;28;20255;-69
2023/03/28 04:52:31;;;;;;;4.13;3.67;;;3.30;69.60;;;;;;5072919;28;20243;-69
2023/03/28 04:55:00;;;;;;;5.53;4.00;;;3.30;69.10;;;;;;5072003;28;20259;-69
2023/03/28 04:57:27;;;;;;;5.05;3.55;;;3.20;69.20;;;;;;5072392;28;20537;-70
2023/03/28 04:59:54;;;;;;;5.97;3.55;;;3.10;69.20;;;;;;5071754;28;20194;-69
2023/03/28 05:02:22;;;;;;;7.13;4.32;;;3.00;69.10;;;;;;5072708;28;20229;-69
2023/03/28 05:04:52;;;;;;;6.10;4.35;;;3.00;69.40;;;;;;5072155;28;20621;-69
2023/03/28 05:07:19;;;;;;;6.18;3.75;;;3.00;69.40;;;;;;5072249;28;20185;-69
2023/03/28 05:09:46;;;;;;;5.40;3.35;;;3.00;69.40;;;;;;5072216;28;20219;-69
2023/03/28 05:12:18;;;;;;;7.18;3.28;;;3.00;69.00;;;;;;5072303;28;20227;-69
2023/03/28 05:14:49;;;;;;;6.05;3.97;;;2.90;69.10;;;;;;5072198;28;20533;-69
2023/03/28 05:17:20;;;;;;;6.70;4.75;;;2.90;69.40;;;;;;5072335;28;20208;-71
2023/03/28 05:19:53;;;;;;;6.03;4.75;;;2.90;69.40;;;;;;5071812;28;20239;-69
2023/03/28 05:22:21;;;;;;;6.07;5.05;;;2.90;69.00;;;;;;5072154;28;20193;-69
2023/03/28 05:24:59;;;;;;;7.53;4.18;;;2.90;68.80;;;;;;5071820;28;20186;-69
2023/03/28 05:27:26;;;;;;;6.10;3.13;;;2.90;68.60;;;;;;5071179;28;20648;-69
2023/03/28 05:29:58;;;;;;;6.57;3.80;;;2.90;68.10;;;;;;5072125;28;20194;-69
2023/03/28 05:32:31;;;;;;;9.82;3.83;;;2.90;68.20;;;;;;5071784;28;20192;-68
2023/03/28 05:35:07;;;;;;;6.90;3.55;;;2.90;68.10;;;;;;5071959;28;20194;-69
2023/03/28 05:37:35;;;;;;;7.25;3.60;;;2.80;68.00;;;;;;5071576;28;20186;-70
2023/03/28 05:40:09;;;;;;;6.97;4.45;;;2.80;68.30;;;;;;5073066;28;20190;-69
2023/03/28 05:42:37;;;;;;;7.85;4.40;;;2.70;68.40;;;;;;5075516;28;20227;-69
2023/03/28 05:45:05;;;;;;;5.82;3.97;;;2.60;68.40;;;;;;5075585;28;20208;-69
2023/03/28 05:47:32;;;;;;;12.20;3.70;;;2.60;68.80;;;;;;5075183;28;20186;-69
2023/03/28 05:50:00;;;;;;;8.65;4.07;;;2.60;68.80;;;;;;5075810;28;20586;-69
2023/03/28 05:52:28;;;;;;;5.15;3.53;;;2.60;69.00;;;;;;5075813;28;20186;-69
2023/03/28 05:54:56;;;;;;;8.60;3.70;;;2.50;69.10;;;;;;5071247;28;20186;-69
2023/03/28 05:57:23;;;;;;;7.28;3.55;;;2.60;69.60;;;;;;5068930;28;20198;-70
2023/03/28 05:59:51;;;;;;;16.17;3.85;;;2.60;69.60;;;;;;5071408;28;20193;-69
2023/03/28 06:02:23;;;;;;;5.18;4.05;;;2.60;69.80;;;;;;5075222;28;20243;-69
2023/03/28 06:04:53;;;;;;;6.45;3.60;;;2.70;69.60;;;;;;5074780;28;20186;-69
2023/03/28 06:07:23;;;;;;;12.77;5.55;;;2.80;69.60;;;;;;5075072;28;20182;-69
2023/03/28 06:09:52;;;;;;;5.35;3.70;;;2.80;69.50;;;;;;5075283;28;20648;-69
2023/03/28 06:12:20;;;;;;;6.68;5.03;;;2.90;69.00;;;;;;5074948;28;20189;-70
2023/03/28 06:14:57;;;;;;;6.45;4.95;;;3.00;69.30;;;;;;5074718;28;20185;-69
2023/03/28 06:17:26;;;;;;;4.75;3.22;;;3.10;69.70;;;;;;5074762;28;20621;-69
2023/03/28 06:19:53;;;;;;;4.40;3.55;;;3.20;69.90;;;;;;5075205;28;20233;-69
2023/03/28 06:22:23;;;;;;;7.88;4.13;;;3.30;69.50;;;;;;5073958;28;20242;-69
2023/03/28 06:24:52;;;;;;;13.32;4.90;;;3.40;68.50;;;;;;5074799;28;20190;-69
2023/03/28 06:27:20;;;;;;;8.73;4.60;;;3.50;68.40;;;;;;5072463;28;20217;-69
2023/03/28 06:29:47;;;;;;;7.95;5.35;;;3.60;68.10;;;;;;5075024;28;20684;-70
2023/03/28 06:32:16;;;;;;;6.82;4.47;;;3.70;68.10;;;;;;5074036;28;20185;-69
2023/03/28 06:34:44;;;;;;;6.63;3.47;;;3.90;69.00;;;;;;5075117;28;20533;-70
2023/03/28 06:37:13;;;;;;;4.93;3.58;;;4.00;67.30;;;;;;5074466;28;20229;-69
2023/03/28 06:39:40;;;;;;;5.05;3.30;;;4.10;66.40;;;;;;5074780;28;20194;-69
2023/03/28 06:42:15;;;;;;;4.72;2.92;;;4.30;66.00;;;;;;5073645;28;20267;-69
2023/03/28 06:44:45;;;;;;;6.85;3.35;;;4.40;64.60;;;;;;5054816;28;20193;-70
2023/03/28 06:47:12;;;;;;;6.90;3.00;;;4.40;62.50;;;;;;5070369;28;20186;-70
2023/03/28 06:49:41;;;;;;;5.88;2.97;;;4.50;61.30;;;;;;5074823;28;20251;-69
2023/03/28 06:52:08;;;;;;;5.40;2.85;;;4.50;60.30;;;;;;5073716;28;20182;-69
2023/03/28 06:54:41;;;;;;;5.65;3.55;;;4.50;60.50;;;;;;5074177;28;20186;-69
2023/03/28 06:57:08;;;;;;;6.75;3.28;;;4.50;60.80;;;;;;5074460;28;20585;-69
2023/03/28 06:59:37;;;;;;;4.78;2.97;;;4.60;60.40;;;;;;5071357;28;21712;-69
2023/03/28 07:02:04;;;;;;;6.93;2.55;;;4.70;60.30;;;;;;5073433;28;20182;-70
2023/03/28 07:04:33;;;;;;;5.20;2.83;;;4.90;59.90;;;;;;5073936;28;20193;-69
2023/03/28 07:07:04;;;;;;;4.97;3.15;;;5.00;59.40;;;;;;5074200;28;20553;-70
2023/03/28 07:09:37;;;;;;;4.55;2.80;;;5.10;58.80;;;;;;5073738;28;20276;-70
2023/03/28 07:12:05;;;;;;;3.50;2.67;;;5.20;58.20;;;;;;5073273;28;20595;-71
2023/03/28 07:14:33;;;;;;;5.40;2.67;;;5.20;58.30;;;;;;5073769;28;20185;-70
2023/03/28 07:17:03;;;;;;;4.57;2.85;;;5.20;58.60;;;;;;5074390;28;20221;-69
2023/03/28 07:19:36;;;;;;;12.77;3.60;;;5.30;58.50;;;;;;5073867;28;20196;-69
2023/03/28 07:22:08;;;;;;;5.05;3.42;;;5.30;58.20;;;;;;5072539;28;20657;-70
2023/03/28 07:24:37;;;;;;;4.30;2.50;;;5.30;57.50;;;;;;5073861;28;20281;-69
2023/03/28 07:27:04;;;;;;;4.65;3.63;;;5.30;57.70;;;;;;5069577;28;20194;-69
2023/03/28 07:29:31;;;;;;;6.78;3.33;;;5.50;57.80;;;;;;5072067;28;20194;-69
2023/03/28 07:32:01;;;;;;;4.75;3.17;;;5.90;57.30;;;;;;5072422;28;20231;-70
2023/03/28 07:34:29;;;;;;;6.53;4.07;;;6.20;56.30;;;;;;5073667;28;20532;-70
2023/03/28 07:36:57;;;;;;;5.07;3.28;;;7.00;56.20;;;;;;5072696;28;20255;-70
2023/03/28 07:39:26;;;;;;;7.53;3.13;;;8.10;53.20;;;;;;5072087;28;20739;-70
2023/03/28 07:41:55;;;;;;;6.03;3.17;;;8.80;50.50;;;;;;5072590;28;20193;-70
2023/03/28 07:44:22;;;;;;;8.45;2.80;;;9.70;48.00;;;;;;5072391;28;20197;-76
2023/03/28 07:46:50;;;;;;;5.70;3.00;;;10.30;45.60;;;;;;5072667;28;20594;-70
2023/03/28 07:49:19;;;;;;;3.58;2.42;;;11.00;43.10;;;;;;5071704;28;20266;-70
2023/03/28 07:51:51;;;;;;;3.53;2.80;;;11.40;40.90;;;;;;5072502;28;20554;-70
2023/03/28 07:54:19;;;;;;;7.07;2.80;;;11.30;40.50;;;;;;5072638;28;20735;-71
2023/03/28 07:56:51;;;;;;;6.32;2.30;;;11.80;39.80;;;;;;5071680;28;20286;-71
2023/03/28 07:59:19;;;;;;;3.30;2.20;;;12.50;39.30;;;;;;5066526;28;20189;-71
2023/03/28 08:01:49;;;;;;;4.93;2.70;;;16.50;37.30;;;;;;5070258;28;20547;-71
2023/03/28 08:04:18;;;;;;;5.47;2.50;;;19.10;30.40;;;;;;5069803;28;20494;-71
2023/03/28 08:06:55;;;;;;;6.77;2.80;;;18.50;26.90;;;;;;5067365;28;20442;-71
2023/03/28 08:09:23;;;;;;;8.80;2.03;;;18.30;26.30;;;;;;5070252;28;20490;-71
2023/03/28 08:11:50;;;;;;;4.57;1.73;;;17.60;26.70;;;;;;5069134;28;20443;-71
2023/03/28 08:14:18;;;;;;;3.63;2.00;;;18.80;27.00;;;;;;5070690;28;20471;-71
2023/03/28 08:17:01;;;;;;;4.47;2.70;;;19.30;24.80;;;;;;5069907;28;20563;-71
2023/03/28 08:19:32;;;;;;;5.90;2.57;;;17.80;24.20;;;;;;5071444;28;20764;-70
2023/03/28 08:22:04;;;;;;;9.03;2.70;;;16.70;24.80;;;;;;5070649;28;20444;-71
2023/03/28 08:24:31;;;;;;;10.53;3.47;;;15.50;26.20;;;;;;5069822;28;20479;-71
2023/03/28 08:26:58;;;;;;;4.87;2.90;;;17.20;28.50;;;;;;5071045;28;20926;-71
2023/03/28 08:29:25;;;;;;;4.40;2.07;;;21.30;24.60;;;;;;5070719;28;20444;-70
2023/03/28 08:31:53;;;;;;;6.23;2.30;;;23.10;21.90;;;;;;5070904;28;20478;-69
2023/03/28 08:34:24;;;;;;;5.20;1.90;;;24.40;20.30;;;;;;5069378;28;20458;-70
2023/03/28 08:36:58;;;;;;;6.80;2.50;;;25.60;19.70;;;;;;5070580;28;20598;-71
2023/03/28 08:39:27;;;;;;;3.87;1.73;;;26.00;18.70;;;;;;5068601;28;20432;-72
2023/03/28 08:42:37;;;;;;;4.83;2.10;;;27.30;17.00;;;;;;5066443;28;20807;-71
2023/03/28 08:45:18;;;;;;;4.90;1.87;;;25.50;16.20;;;;;;5064450;28;20470;-70
2023/03/28 08:47:57;;;;;;;4.73;2.70;;;28.10;17.30;;;;;;5069769;28;20475;-71
2023/03/28 08:50:29;;;;;;;6.10;3.03;;;29.50;14.90;;;;;;5069551;28;20435;-70
2023/03/28 08:52:59;;;;;;;4.40;2.50;;;29.70;13.20;;;;;;5070284;28;20965;-70
2023/03/28 08:55:32;;;;;;;5.87;2.33;;;31.00;13.70;;;;;;5070367;28;20436;-70
2023/03/28 08:58:02;;;;;;;3.83;1.87;;;29.00;12.90;;;;;;5066559;28;20471;-70
2023/03/28 09:00:35;;;;;;;2.83;1.77;;;25.70;13.60;;;;;;5069809;28;20436;-71
2023/03/28 09:03:11;;;;;;;3.20;1.30;;;25.90;15.70;;;;;;5069147;28;20849;-71
2023/03/28 09:05:46;;;;;;;4.90;2.10;;;27.80;14.40;;;;;;5068008;28;20428;-70
2023/03/28 09:08:29;;;;;;;3.50;1.87;;;29.60;13.90;;;;;;5069237;28;20507;-72
2023/03/28 09:11:03;;;;;;;4.63;2.17;;;32.80;12.30;;;;;;5068819;28;20428;-70
2023/03/28 09:13:40;;;;;;;2.27;1.10;;;33.80;10.60;;;;;;5070583;28;20444;-71
2023/03/28 09:16:31;;;;;;;3.00;1.63;;;35.30;10.00;;;;;;5074759;28;20451;-70
2023/03/28 09:19:15;;;;;;;4.03;1.93;;;37.40;8.70;;;;;;5074697;28;20443;-70
2023/03/28 09:22:00;;;;;;;3.70;2.43;;;37.50;8.00;;;;;;5070944;28;20435;-71
2023/03/28 09:24:47;;;;;;;5.50;2.90;;;38.00;8.20;;;;;;5073384;28;20469;-71
2023/03/28 09:27:21;;;;;;;5.00;1.83;;;38.80;7.60;;;;;;5074516;28;20491;-71
2023/03/28 09:29:49;;;;;;;4.97;2.00;;;35.20;7.60;;;;;;5071126;28;20948;-71
2023/03/28 09:32:26;;;;;;;4.07;1.70;;;34.60;8.10;;;;;;5074497;28;20467;-71
2023/03/28 09:34:58;;;;;;;5.70;2.07;;;36.40;7.80;;;;;;5070732;28;20986;-70
2023/03/28 09:37:30;;;;;;;3.73;2.10;;;38.00;7.00;;;;;;5074256;28;20531;-71
2023/03/28 09:40:06;;;;;;;4.57;2.40;;;39.30;6.60;;;;;;5074070;28;20518;-71
2023/03/28 09:42:44;;;;;;;5.80;2.53;;;40.40;6.40;;;;;;5074610;28;20451;-71
2023/03/28 09:45:25;;;;;;;3.93;1.77;;;40.70;5.30;;;;;;5074439;28;20518;-70
2023/03/28 09:47:53;;;;;;;3.80;1.97;;;40.30;5.40;;;;;;5074445;28;20537;-71
2023/03/28 09:50:24;;;;;;;3.70;2.00;;;39.10;6.00;;;;;;5073670;28;20481;-72
2023/03/28 09:52:53;;;;;;;4.10;1.73;;;36.20;6.10;;;;;;5069564;28;20440;-70
2023/03/28 09:55:27;;;;;;;2.90;1.27;;;32.60;6.90;;;;;;5073770;28;20528;-70
2023/03/28 09:58:01;;;;;;;2.57;1.60;;;29.00;8.60;;;;;;5069726;28;20967;-70
2023/03/28 10:00:29;;;;;;;4.80;2.03;;;29.40;10.00;;;;;;5073778;28;20436;-70
2023/03/28 10:02:56;;;;;;;6.33;2.00;;;30.30;8.80;;;;;;5073854;28;20523;-72
2023/03/28 10:05:37;;;;;;;5.07;1.60;;;29.70;9.90;;;;;;5067537;28;20459;-70
2023/03/28 10:08:18;;;;;;;5.20;1.80;;;32.80;9.40;;;;;;5073199;28;20486;-70
2023/03/28 10:11:00;;;;;;;5.00;2.10;;;33.20;8.00;;;;;;5070534;28;21354;-70
2023/03/28 10:13:37;;;;;;;4.43;2.77;;;31.80;7.80;;;;;;5069459;28;20805;-70
2023/03/28 10:16:12;;;;;;;4.70;2.13;;;31.90;8.30;;;;;;5073829;28;20526;-71
2023/03/28 10:18:42;;;;;;;2.80;1.23;;;29.40;8.70;;;;;;5069508;28;20813;-72
2023/03/28 10:21:32;;;;;;;4.87;1.83;;;27.20;9.90;;;;;;5073531;28;20476;-70
2023/03/28 10:24:06;;;;;;;2.93;1.80;;;29.30;10.60;;;;;;5069923;28;20443;-70
2023/03/28 10:26:35;;;;;;;3.50;1.87;;;33.40;8.60;;;;;;5072242;28;20451;-71
2023/03/28 10:29:07;;;;;;;3.17;1.53;;;36.00;8.10;;;;;;5071480;28;20852;-76
2023/03/28 10:31:34;;;;;;;3.67;1.87;;;38.00;6.50;;;;;;5066609;28;20433;-72
2023/03/28 10:34:25;;;;;;;3.27;1.80;;;39.60;5.60;;;;;;5070635;28;20482;-73
2023/03/28 10:36:53;;;;;;;3.80;1.87;;;40.60;5.30;;;;;;5072720;28;20483;-72
2023/03/28 10:39:23;;;;;;;4.10;1.87;;;41.20;5.10;;;;;;5072171;28;20973;-71
2023/03/28 10:41:59;;;;;;;4.27;2.30;;;42.10;5.60;;;;;;5072652;28;20444;-71
2023/03/28 10:44:30;;;;;;;7.03;2.37;;;42.90;4.70;;;;;;5069267;28;20443;-73
2023/03/28 10:47:02;;;;;;;3.50;2.30;;;40.90;4.40;;;;;;5068437;28;20471;-71
2023/03/28 10:49:32;;;;;;;2.30;1.40;;;37.10;5.10;;;;;;5072041;28;20489;-71
2023/03/28 10:51:59;;;;;;;7.20;2.27;;;36.30;6.60;;;;;;5071105;28;20432;-71
2023/03/28 10:54:41;;;;;;;4.40;2.27;;;36.90;6.30;;;;;;5073413;28;20436;-71
2023/03/28 10:57:21;;;;;;;3.43;1.70;;;38.40;5.90;;;;;;5073506;28;20853;-70
2023/03/28 10:59:54;;;;;;;3.17;1.67;;;40.00;5.40;;;;;;5074713;28;20439;-71
2023/03/28 11:02:42;;;;;;;2.57;1.60;;;38.10;4.40;;;;;;5073902;28;20428;-70
2023/03/28 11:05:28;;;;;;;3.13;1.97;;;33.90;6.10;;;;;;5033349;28;20489;-70
2023/03/28 11:07:59;;;;;;;7.60;1.60;;;31.80;7.00;;;;;;5074071;28;20541;-70
2023/03/28 11:10:37;;;;;;;2.43;1.40;;;30.80;7.50;;;;;;5074454;28;20436;-70
2023/03/28 11:13:17;;;;;;;3.90;1.60;;;31.30;6.80;;;;;;5074927;28;20482;-70
2023/03/28 11:15:55;;;;;;;3.30;1.73;;;28.90;8.00;;;;;;5074716;28;20465;-69
2023/03/28 11:18:34;;;;;;;3.33;1.60;;;26.20;9.10;;;;;;5074325;28;20447;-69
2023/03/28 11:21:12;;;;;;;3.63;1.87;;;23.90;11.40;;;;;;5074149;28;20476;-69
2023/03/28 11:23:46;;;;;;;5.23;2.00;;;21.90;12.60;;;;;;5074757;28;21002;-69
2023/03/28 11:26:17;;;;;;;4.90;2.10;;;20.30;13.90;;;;;;5073935;28;20444;-70
2023/03/28 11:29:05;;;;;;;2.97;2.20;;;20.20;14.60;;;;;;5074721;28;20573;-70
2023/03/28 11:31:38;;;;;;;4.67;1.63;;;19.90;14.90;;;;;;5074226;28;20527;-69
2023/03/28 11:34:11;;;;;;;4.50;2.63;;;22.00;16.00;;;;;;5074301;28;20448;-70
2023/03/28 11:36:46;;;;;;;6.63;2.00;;;23.80;12.90;;;;;;5074253;28;20523;-69
2023/03/28 11:39:19;;;;;;;6.13;2.30;;;22.50;12.90;;;;;;5073542;28;20436;-70
2023/03/28 11:41:47;;;;;;;2.40;1.30;;;21.20;14.00;;;;;;5073940;28;20428;-70
2023/03/28 11:44:21;;;;;;;2.60;1.70;;;20.10;13.80;;;;;;5074031;28;20495;-70
2023/03/28 11:46:53;;;;;;;2.30;1.50;;;19.10;13.90;;;;;;5074207;28;20522;-70
2023/03/28 11:49:24;;;;;;;2.63;1.73;;;20.20;16.20;;;;;;5073997;28;20475;-69
2023/03/28 11:51:59;;;;;;;2.60;1.30;;;24.10;15.40;;;;;;5073952;28;20577;-70
2023/03/28 11:54:34;;;;;;;3.50;2.10;;;28.10;12.80;;;;;;5073608;28;20758;-70
2023/03/28 11:57:08;;;;;;;2.93;1.70;;;28.50;11.00;;;;;;5073968;28;20497;-70
2023/03/28 11:59:43;;;;;;;6.60;2.30;;;27.80;10.60;;;;;;5073855;28;20451;-70
2023/03/28 12:02:22;;;;;;;3.33;1.63;;;26.50;10.60;;;;;;5073426;28;20474;-72
2023/03/28 12:04:55;;;;;;;3.70;2.10;;;24.50;11.60;;;;;;5074006;28;20464;-70
2023/03/28 12:07:29;;;;;;;3.30;1.87;;;24.20;12.40;;;;;;5073421;28;20475;-71
2023/03/28 12:10:07;;;;;;;2.03;1.23;;;26.40;12.50;;;;;;5073885;28;20482;-70
2023/03/28 12:12:41;;;;;;;4.33;1.97;;;30.10;10.60;;;;;;5073702;28;20435;-70
2023/03/28 12:15:15;;;;;;;2.70;1.70;;;33.00;9.00;;;;;;5073522;28;20938;-70
2023/03/28 12:17:46;;;;;;;2.97;1.70;;;31.70;7.50;;;;;;5073578;28;20471;-70
2023/03/28 12:20:17;;;;;;;3.90;1.70;;;29.00;8.60;;;;;;5073403;28;20531;-71
2023/03/28 12:22:49;;;;;;;3.00;1.50;;;28.10;10.70;;;;;;5073541;28;20476;-71
2023/03/28 12:25:27;;;;;;;2.77;1.63;;;28.70;9.50;;;;;;5073297;28;20446;-71
2023/03/28 12:28:01;;;;;;;6.20;1.60;;;28.70;10.20;;;;;;5073357;28;20884;-70
2023/03/28 12:30:35;;;;;;;3.17;1.40;;;28.20;9.30;;;;;;5072851;28;20511;-70
2023/03/28 12:33:14;;;;;;;2.30;1.30;;;26.50;10.00;;;;;;5073042;28;20481;-70
2023/03/28 12:35:48;;;;;;;2.70;1.60;;;24.70;11.10;;;;;;5073430;28;20953;-71
2023/03/28 12:38:28;;;;;;;4.60;1.97;;;23.00;11.80;;;;;;5073443;28;20471;-69
2023/03/28 12:40:59;;;;;;;3.07;1.80;;;21.50;12.40;;;;;;5073147;28;20471;-71
2023/03/28 12:43:31;;;;;;;3.10;1.57;;;20.50;13.60;;;;;;5073237;28;20523;-70
2023/03/28 12:46:03;;;;;;;2.83;1.60;;;20.80;14.50;;;;;;5072876;28;20509;-70
2023/03/28 12:48:34;;;;;;;3.13;1.70;;;23.30;14.30;;;;;;5072853;28;20516;-70
2023/03/28 12:51:09;;;;;;;3.47;1.83;;;25.50;12.20;;;;;;5073205;28;20871;-71
2023/03/28 12:53:44;;;;;;;4.60;2.00;;;24.10;11.50;;;;;;5072902;28;20466;-69
2023/03/28 12:56:14;;;;;;;3.90;1.90;;;22.30;12.00;;;;;;5072540;28;20443;-69
2023/03/28 12:58:41;;;;;;;3.00;1.90;;;21.30;13.40;;;;;;5073253;28;20472;-70
2023/03/28 13:01:36;;;;;;;3.60;1.63;;;20.50;13.80;;;;;;5073057;28;20467;-70
2023/03/28 13:04:13;;;;;;;5.80;1.67;;;22.50;14.90;;;;;;5069546;28;20523;-69
2023/03/28 13:06:48;;;;;;;3.43;1.60;;;24.50;13.20;;;;;;5072994;28;20471;-70
2023/03/28 13:09:51;;;;;;;2.87;1.80;;;25.40;13.50;;;;;;5072481;28;20483;-70
2023/03/28 13:12:29;;;;;;;4.20;1.47;;;27.00;11.40;;;;;;5072909;28;20428;-70
2023/03/28 13:15:00;;;;;;;2.80;1.20;;;28.40;11.00;;;;;;5072820;28;20820;-70
2023/03/28 13:17:31;;;;;;;3.27;1.63;;;29.20;9.60;;;;;;5072614;28;20519;-70
2023/03/28 13:20:08;;;;;;;5.73;2.10;;;29.60;9.20;;;;;;5072914;28;20464;-70
2023/03/28 13:22:43;;;;;;;3.37;2.07;;;29.60;9.00;;;;;;5072765;28;20435;-70
2023/03/28 13:25:26;;;;;;;4.00;1.50;;;28.00;9.70;;;;;;5072848;28;20509;-70